TimeEDT,TemperatureF,Dew PointF,Humidity,Sea Level PressureIn,VisibilityMPH,Wind Direction,Wind SpeedMPH,Gust SpeedMPH,PrecipitationIn,Events,Conditions,WindDirDegrees,DateUTC
12:15 AM,68.0,68.0,100,29.93,10.0,WSW,6.9,-,N/A,Rain,Light Rain,240,2013-04-20 04:15:00
12:35 AM,68.0,68.0,100,29.94,10.0,West,9.2,-,N/A,,Overcast,260,2013-04-20 04:35:00
12:55 AM,68.0,68.0,100,29.93,10.0,West,10.4,17.3,N/A,,Light Drizzle,260,2013-04-20 04:55:00
1:15 AM,68.0,68.0,100,29.93,10.0,WSW,9.2,-,N/A,,Light Drizzle,250,2013-04-20 05:15:00
1:35 AM,66.2,66.2,100,29.93,10.0,West,5.8,-,N/A,Rain,Light Rain,260,2013-04-20 05:35:00
1:55 AM,64.4,64.4,100,29.93,10.0,West,10.4,-,N/A,,Overcast,260,2013-04-20 05:55:00
2:15 AM,64.4,64.4,100,29.94,10.0,West,12.7,18.4,N/A,,Overcast,260,2013-04-20 06:15:00
2:35 AM,60.8,60.8,100,29.95,10.0,West,15.0,21.9,N/A,,Drizzle,280,2013-04-20 06:35:00
2:55 AM,60.8,60.8,100,29.95,10.0,West,8.1,-,N/A,Rain,Light Rain,280,2013-04-20 06:55:00
3:15 AM,59.0,59.0,100,29.94,10.0,West,12.7,18.4,N/A,Rain,Light Rain,280,2013-04-20 07:15:00
3:35 AM,59.0,59.0,100,29.95,10.0,West,10.4,17.3,N/A,,Overcast,270,2013-04-20 07:35:00
3:55 AM,55.4,55.4,100,29.97,10.0,West,12.7,17.3,N/A,Rain,Light Rain,280,2013-04-20 07:55:00
4:15 AM,53.6,53.6,100,29.96,10.0,WNW,11.5,18.4,N/A,Rain,Light Rain,290,2013-04-20 08:15:00
4:35 AM,53.6,53.6,100,29.96,10.0,West,10.4,-,N/A,Rain,Light Rain,280,2013-04-20 08:35:00
4:55 AM,53.6,53.6,100,29.97,10.0,West,9.2,16.1,N/A,,Overcast,270,2013-04-20 08:55:00
5:15 AM,51.8,51.8,100,29.98,10.0,WNW,9.2,-,N/A,Rain,Light Rain,290,2013-04-20 09:15:00
5:35 AM,51.8,51.8,100,29.99,10.0,West,8.1,-,N/A,Rain,Light Rain,280,2013-04-20 09:35:00
6:15 AM,51.8,51.8,100,30.02,10.0,West,10.4,17.3,N/A,Rain,Light Rain,280,2013-04-20 10:15:00
6:35 AM,51.8,51.8,100,30.03,10.0,West,8.1,-,N/A,Rain,Rain,280,2013-04-20 10:35:00
6:55 AM,51.8,51.8,100,30.03,10.0,WNW,5.8,-,N/A,Rain,Light Rain,300,2013-04-20 10:55:00
7:15 AM,51.8,51.8,100,30.06,10.0,West,4.6,-,N/A,,Drizzle,270,2013-04-20 11:15:00
7:35 AM,51.8,51.8,100,30.06,10.0,WNW,5.8,-,N/A,,Overcast,290,2013-04-20 11:35:00
7:55 AM,51.8,51.8,100,30.05,10.0,NW,5.8,-,N/A,,Overcast,310,2013-04-20 11:55:00
8:15 AM,53.6,53.6,100,30.07,10.0,WNW,4.6,-,N/A,,Overcast,300,2013-04-20 12:15:00
8:35 AM,53.6,53.6,100,30.08,10.0,NW,5.8,-,N/A,,Overcast,310,2013-04-20 12:35:00
8:55 AM,53.6,53.6,100,30.09,10.0,WNW,5.8,-,N/A,,Overcast,300,2013-04-20 12:55:00
9:15 AM,53.6,53.6,100,30.10,10.0,NW,4.6,-,N/A,,Overcast,320,2013-04-20 13:15:00
9:35 AM,53.6,53.6,100,30.10,10.0,NNW,8.1,-,N/A,,Mostly Cloudy,340,2013-04-20 13:35:00
9:55 AM,53.6,53.6,100,30.11,10.0,NNW,6.9,-,N/A,,Scattered Clouds,340,2013-04-20 13:55:00
10:15 AM,53.6,51.8,94,30.11,10.0,North,15.0,20.7,N/A,,Clear,350,2013-04-20 14:15:00
10:35 AM,53.6,48.2,82,30.13,10.0,North,10.4,18.4,N/A,,Clear,350,2013-04-20 14:35:00
10:55 AM,55.4,46.4,72,30.13,10.0,North,10.4,18.4,N/A,,Clear,360,2013-04-20 14:55:00
11:15 AM,55.4,46.4,72,30.15,10.0,North,11.5,19.6,N/A,,Clear,10,2013-04-20 15:15:00
11:35 AM,55.4,42.8,63,30.15,10.0,North,12.7,19.6,N/A,,Clear,360,2013-04-20 15:35:00
11:55 AM,55.4,44.6,67,30.15,10.0,North,10.4,-,N/A,,Clear,10,2013-04-20 15:55:00
12:15 PM,55.4,46.4,72,30.15,10.0,North,8.1,-,N/A,,Clear,360,2013-04-20 16:15:00
12:35 PM,55.4,42.8,63,30.16,10.0,NNW,11.5,-,N/A,,Clear,340,2013-04-20 16:35:00
12:55 PM,57.2,42.8,59,30.15,10.0,North,11.5,-,N/A,,Clear,350,2013-04-20 16:55:00
1:15 PM,55.4,42.8,63,30.16,10.0,NNW,9.2,-,N/A,,Clear,340,2013-04-20 17:15:00
1:35 PM,55.4,44.6,67,30.16,10.0,North,9.2,-,N/A,,Clear,350,2013-04-20 17:35:00
1:55 PM,55.4,44.6,67,30.16,10.0,NNW,9.2,-,N/A,,Clear,340,2013-04-20 17:55:00
2:15 PM,57.2,44.6,63,30.15,10.0,NNW,11.5,-,N/A,,Clear,330,2013-04-20 18:15:00
2:35 PM,57.2,44.6,63,30.15,10.0,NNE,8.1,-,N/A,,Clear,20,2013-04-20 18:35:00
2:55 PM,57.2,44.6,63,30.15,10.0,North,6.9,-,N/A,,Clear,350,2013-04-20 18:55:00
3:15 PM,59.0,44.6,59,30.15,10.0,NNW,8.1,-,N/A,,Clear,340,2013-04-20 19:15:00
3:35 PM,59.0,42.8,55,30.15,10.0,North,9.2,-,N/A,,Clear,10,2013-04-20 19:35:00
3:55 PM,59.0,44.6,59,30.14,10.0,North,5.8,-,N/A,,Clear,350,2013-04-20 19:55:00
4:15 PM,59.0,44.6,59,30.14,10.0,North,8.1,-,N/A,,Clear,350,2013-04-20 20:15:00
4:35 PM,59.0,44.6,59,30.14,10.0,North,4.6,-,N/A,,Clear,350,2013-04-20 20:35:00
4:55 PM,59.0,44.6,59,30.15,10.0,North,4.6,-,N/A,,Clear,350,2013-04-20 20:55:00
5:15 PM,59.0,42.8,55,30.15,10.0,North,4.6,-,N/A,,Clear,10,2013-04-20 21:15:00
5:35 PM,59.0,42.8,55,30.15,10.0,North,6.9,-,N/A,,Clear,360,2013-04-20 21:35:00
5:55 PM,57.2,44.6,63,30.17,10.0,NNW,5.8,-,N/A,,Clear,330,2013-04-20 21:55:00
6:15 PM,55.4,42.8,63,30.17,10.0,NNW,4.6,-,N/A,,Clear,330,2013-04-20 22:15:00
6:35 PM,55.4,44.6,67,30.16,10.0,NNW,4.6,-,N/A,,Clear,340,2013-04-20 22:35:00
6:55 PM,55.4,42.8,63,30.17,10.0,North,5.8,-,N/A,,Clear,350,2013-04-20 22:55:00
7:15 PM,55.4,42.8,63,30.18,10.0,North,4.6,-,N/A,,Clear,350,2013-04-20 23:15:00
7:35 PM,55.4,42.8,63,30.20,10.0,North,3.5,-,N/A,,Clear,350,2013-04-20 23:35:00
7:55 PM,53.6,44.6,72,30.19,10.0,North,5.8,-,N/A,,Clear,360,2013-04-20 23:55:00
8:15 PM,53.6,44.6,72,30.21,10.0,Calm,Calm,-,N/A,,Clear,0,2013-04-21 00:15:00
8:35 PM,51.8,46.4,82,30.21,10.0,Calm,Calm,-,N/A,,Clear,0,2013-04-21 00:35:00
8:55 PM,51.8,46.4,82,30.22,10.0,North,3.5,-,N/A,,Clear,10,2013-04-21 00:55:00
9:15 PM,50.0,46.4,87,30.23,10.0,Calm,Calm,-,N/A,,Clear,0,2013-04-21 01:15:00
9:35 PM,48.2,46.4,93,30.24,10.0,Calm,Calm,-,N/A,,Clear,0,2013-04-21 01:35:00
9:55 PM,46.4,46.4,100,30.25,10.0,Calm,Calm,-,N/A,,Clear,0,2013-04-21 01:55:00
10:15 PM,46.4,46.4,100,30.26,10.0,Calm,Calm,-,N/A,,Clear,0,2013-04-21 02:15:00
10:35 PM,44.6,44.6,100,30.26,10.0,Calm,Calm,-,N/A,,Clear,0,2013-04-21 02:35:00
10:55 PM,46.4,46.4,100,30.26,10.0,North,3.5,-,N/A,,Clear,360,2013-04-21 02:55:00
11:15 PM,44.6,44.6,100,30.26,10.0,Calm,Calm,-,N/A,,Clear,0,2013-04-21 03:15:00
11:35 PM,46.4,46.4,100,30.26,10.0,Calm,Calm,-,N/A,,Clear,0,2013-04-21 03:35:00
11:55 PM,44.6,44.6,100,30.26,10.0,Calm,Calm,-,N/A,,Clear,0,2013-04-21 03:55:00